Time;durP1;ratioP1;P1;durP2;ratioP2;P2;SDS_P1;SDS_P2;PMS_P1;PMS_P2;Temp;Humidity;BMP_temperature;BMP_pressure;BME280_temperature;BME280_humidity;BME280_pressure;Samples;Min_cycle;Max_cycle;Signal;HPM_P1;HPM_P2
2023/01/20 00:00:39;;;;;;;;;;;;;;;;;;4436407;32;20033;-74
2023/01/20 00:03:04;;;;;;;25.06;15.02;;;;;;;;;;4436124;32;19948;-75
2023/01/20 00:05:29;;;;;;;;;;;;;;;;;;4436729;32;20026;-76
2023/01/20 00:07:54;;;;;;;44.08;20.33;;;;;;;;;;4422261;32;20015;-75
2023/01/20 00:10:19;;;;;;;;;;;;;;;;;;4447261;32;20116;-75
2023/01/20 00:12:44;;;;;;;46.15;26.45;;;;;;;;;;4454483;32;19937;-75
2023/01/20 00:15:09;;;;;;;;;;;;;;;;;;4453542;32;20177;-76
2023/01/20 00:17:35;;;;;;;67.85;35.35;;;;;;;;;;4451527;32;19937;-76
2023/01/20 00:20:00;;;;;;;64.10;35.17;;;;;;;;;;4437207;32;20507;-76
2023/01/20 00:22:25;;;;;;;66.75;36.78;;;;;;;;;;4437328;32;20025;-76
2023/01/20 00:24:51;;;;;;;73.90;37.75;;;;;;;;;;4438689;32;20029;-75
2023/01/20 00:27:16;;;;;;;74.22;37.88;;;;;;;;;;4452591;32;20029;-76
2023/01/20 00:29:45;;;;;;;;;;;;;;;;;;4451960;32;20408;-76
2023/01/20 00:32:10;;;;;;;73.93;36.38;;;;;;;;;;4437377;32;19939;-76
2023/01/20 00:34:36;;;;;;;;;;;;;;;;;;4437946;32;20025;-76
2023/01/20 00:37:01;;;;;;;70.45;34.67;;;;;;;;;;4453121;32;19932;-76
2023/01/20 00:39:26;;;;;;;;;;;;;;;;;;4435928;32;20113;-76
2023/01/20 00:41:52;;;;;;;85.76;39.76;;;;;;;;;;4450407;32;20333;-75
2023/01/20 00:44:17;;;;;;;;;;;;;;;;;;4452752;32;20085;-76
2023/01/20 00:46:43;;;;;;;85.50;39.17;;;;;;;;;;4450318;32;19960;-76
2023/01/20 00:49:08;;;;;;;;;;;;;;;;;;4452629;32;20163;-76
2023/01/20 00:51:33;;;;;;;91.63;38.17;;;;;;;;;;4450639;32;19955;-76
2023/01/20 00:53:58;;;;;;;;;;;;;;;;;;4451622;32;20414;-76
2023/01/20 00:56:23;;;;;;;75.78;36.22;;;;;;;;;;4438962;32;20341;-76
2023/01/20 00:58:48;;;;;;;84.07;38.97;;;;;;;;;;4421290;32;20084;-76
2023/01/20 01:01:14;;;;;;;82.03;38.03;;;;;;;;;;4421028;32;20042;-76
2023/01/20 01:03:39;;;;;;;;;;;;;;;;;;4440201;32;20022;-76
2023/01/20 01:06:09;;;;;;;73.03;35.00;;;;;;;;;;4424626;32;19974;-76
2023/01/20 01:08:34;;;;;;;79.82;35.92;;;;;;;;;;4439603;32;20177;-76
2023/01/20 01:10:59;;;;;;;;;;;;;;;;;;4443100;32;20033;-75
2023/01/20 01:13:25;;;;;;;78.38;35.02;;;;;;;;;;4438164;32;19949;-76
2023/01/20 01:15:50;;;;;;;;;;;;;;;;;;4423706;32;20048;-76
2023/01/20 01:18:15;;;;;;;71.70;31.87;;;;;;;;;;4438395;32;19967;-76
2023/01/20 01:20:43;;;;;;;;;;;;;;;;;;4439710;32;20474;-76
2023/01/20 01:23:08;;;;;;;72.68;33.45;;;;;;;;;;4438165;32;20337;-76
2023/01/20 01:25:33;;;;;;;;;;;;;;;;;;4437938;32;20053;-76
2023/01/20 01:27:58;;;;;;;88.95;37.83;;;;;;;;;;4437984;32;20295;-76
2023/01/20 01:30:24;;;;;;;;;;;;;;;;;;4437345;32;20129;-76
2023/01/20 01:32:49;;;;;;;92.93;37.72;;;;;;;;;;4439738;32;19980;-77
2023/01/20 01:35:14;;;;;;;;;;;;;;;;;;4424116;32;20617;-76
2023/01/20 01:37:39;;;;;;;87.30;35.65;;;;;;;;;;4437885;32;19967;-76
2023/01/20 01:40:04;;;;;;;;;;;;;;;;;;4444576;32;20133;-77
2023/01/20 01:42:29;;;;;;;73.53;33.25;;;;;;;;;;4441194;32;20005;-76
2023/01/20 01:44:54;;;;;;;;;;;;;;;;;;4442129;32;20518;-76
2023/01/20 01:47:20;;;;;;;77.90;35.38;;;;;;;;;;4441594;32;19980;-76
2023/01/20 01:49:46;;;;;;;;;;;;;;;;;;4439817;32;20175;-76
2023/01/20 01:52:11;;;;;;;83.87;35.58;;;;;;;;;;4440863;32;19948;-76
2023/01/20 01:54:37;;;;;;;;;;;;;;;;;;4440189;32;20415;-75
2023/01/20 01:57:03;;;;;;;75.08;35.48;;;;;;;;;;4438080;32;19989;-76
2023/01/20 01:59:28;;;;;;;88.50;38.38;;;;;;;;;;4423675;32;20030;-76
2023/01/20 02:01:54;;;;;;;;;;;;;;;;;;4452543;32;20089;-76
2023/01/20 02:04:22;;;;;;;80.07;35.25;;;;;;;;;;4454562;32;19968;-76
2023/01/20 02:06:52;;;;;;;69.35;33.75;;;;;;;;;;4438511;32;20188;-76
2023/01/20 02:09:17;;;;;;;82.88;37.05;;;;;;;;;;4428413;32;20363;-76
2023/01/20 02:11:47;;;;;;;;;;;;;;;;;;4441147;32;20018;-76
2023/01/20 02:14:13;;;;;;;79.55;35.45;;;;;;;;;;4438624;32;19984;-76
2023/01/20 02:16:38;;;;;;;;;;;;;;;;;;4440003;32;20025;-76
2023/01/20 02:19:18;;;;;;;74.62;34.42;;;;;;;;;;4455013;32;19944;-76
2023/01/20 02:21:43;;;;;;;71.40;34.35;;;;;;;;;;4453893;32;20113;-76
2023/01/20 02:24:08;;;;;;;;;;;;;;;;;;4439172;32;20102;-75
2023/01/20 02:26:41;;;;;;;86.18;38.13;;;;;;;;;;4438778;32;20309;-75
2023/01/20 02:29:15;;;;;;;78.60;35.35;;;;;;;;;;4453040;32;20059;-76
2023/01/20 02:31:44;;;;;;;77.43;36.13;;;;;;;;;;4441915;32;20108;-76
2023/01/20 02:34:21;;;;;;;70.22;35.47;;;;;;;;;;4438014;32;20068;-76
2023/01/20 02:36:49;;;;;;;83.95;38.28;;;;;;;;;;4438593;32;20089;-75
2023/01/20 02:39:14;;;;;;;73.75;37.05;;;;;;;;;;4442327;32;20414;-76
2023/01/20 02:41:39;;;;;;;;;;;;;;;;;;4439038;32;20041;-76
2023/01/20 02:44:04;;;;;;;69.32;34.60;;;;;;;;;;4438826;32;19936;-75
2023/01/20 02:46:31;;;;;;;;;;;;;;;;;;4443113;32;20581;-76
2023/01/20 02:49:09;;;;;;;69.85;35.60;;;;;;;;;;4452932;32;19932;-76
2023/01/20 02:51:41;;;;;;;70.35;35.65;;;;;;;;;;4451566;32;20042;-76
2023/01/20 02:54:08;;;;;;;68.45;33.53;;;;;;;;;;4440726;32;20029;-75
2023/01/20 02:56:34;;;;;;;67.47;33.45;;;;;;;;;;4449013;32;20049;-75
2023/01/20 02:58:59;;;;;;;;;;;;;;;;;;4454166;32;20084;-76
2023/01/20 03:01:30;;;;;;;69.22;34.40;;;;;;;;;;4452530;32;19988;-76
2023/01/20 03:03:58;;;;;;;73.35;36.58;;;;;;;;;;4455816;32;20127;-75
2023/01/20 03:06:25;;;;;;;67.18;35.33;;;;;;;;;;4446650;32;20041;-75
2023/01/20 03:08:52;;;;;;;83.30;38.13;;;;;;;;;;4439842;32;20022;-76
2023/01/20 03:11:17;;;;;;;70.18;37.83;;;;;;;;;;4437530;32;20359;-76
2023/01/20 03:13:43;;;;;;;;;;;;;;;;;;4436287;32;20021;-76
2023/01/20 03:16:10;;;;;;;71.05;36.03;;;;;;;;;;4438844;32;20190;-76
2023/01/20 03:18:36;;;;;;;69.97;35.83;;;;;;;;;;4441171;32;20055;-75
2023/01/20 03:21:02;;;;;;;;;;;;;;;;;;4436436;32;20046;-76
2023/01/20 03:23:28;;;;;;;72.10;34.70;;;;;;;;;;4440400;32;19937;-76
2023/01/20 03:25:54;;;;;;;72.60;37.30;;;;;;;;;;4428296;32;20101;-75
2023/01/20 03:28:19;;;;;;;;;;;;;;;;;;4446216;32;20448;-75
2023/01/20 03:30:44;;;;;;;77.68;40.25;;;;;;;;;;4452134;32;19957;-75
2023/01/20 03:33:09;;;;;;;;;;;;;;;;;;4443459;32;20121;-76
2023/01/20 03:35:35;;;;;;;78.76;37.42;;;;;;;;;;4436701;32;20289;-75
2023/01/20 03:38:00;;;;;;;;;;;;;;;;;;4437640;32;20048;-75
2023/01/20 03:40:27;;;;;;;76.57;35.63;;;;;;;;;;4425177;32;19992;-77
2023/01/20 03:43:13;;;;;;;76.90;37.80;;;;;;;;;;4452113;32;20146;-77
2023/01/20 03:45:47;;;;;;;68.90;34.83;;;;;;;;;;4436511;32;20025;-76
2023/01/20 03:48:16;;;;;;;82.85;37.88;;;;;;;;;;4438892;32;20033;-76
2023/01/20 03:51:10;;;;;;;71.82;38.00;;;;;;;;;;4435837;32;20038;-77
2023/01/20 03:53:45;;;;;;;86.03;39.83;;;;;;;;;;4366859;32;20043;-77
2023/01/20 03:56:16;;;;;;;75.20;37.42;;;;;;;;;;4436386;32;20096;-77
2023/01/20 03:58:43;;;;;;;85.32;39.80;;;;;;;;;;4442142;32;20029;-76
2023/01/20 04:01:10;;;;;;;79.15;38.35;;;;;;;;;;4448183;32;20055;-74
2023/01/20 04:03:37;;;;;;;89.00;41.28;;;;;;;;;;4437225;32;20102;-76
2023/01/20 04:06:04;;;;;;;76.45;39.08;;;;;;;;;;4424689;32;20045;-76
2023/01/20 04:08:32;;;;;;;80.20;39.33;;;;;;;;;;4450102;32;20060;-76
2023/01/20 04:10:58;;;;;;;81.90;39.97;;;;;;;;;;4452404;32;20062;-76
2023/01/20 04:13:23;;;;;;;;;;;;;;;;;;4452908;32;20014;-76
2023/01/20 04:15:49;;;;;;;86.67;40.07;;;;;;;;;;4437357;32;20035;-76
2023/01/20 04:18:14;;;;;;;;;;;;;;;;;;4453198;32;20050;-76
2023/01/20 04:20:39;;;;;;;94.20;39.78;;;;;;;;;;4436411;32;19944;-76
2023/01/20 04:23:05;;;;;;;98.32;40.30;;;;;;;;;;4450002;32;20025;-76
2023/01/20 04:25:31;;;;;;;107.55;45.78;;;;;;;;;;4451646;32;20041;-76
2023/01/20 04:27:56;;;;;;;;;;;;;;;;;;4427101;32;20051;-76
2023/01/20 04:30:21;;;;;;;111.50;48.22;;;;;;;;;;4451402;32;20007;-76
2023/01/20 04:32:46;;;;;;;;;;;;;;;;;;4452659;32;20128;-76
2023/01/20 04:35:12;;;;;;;115.65;47.47;;;;;;;;;;4451718;32;20022;-76
2023/01/20 04:37:37;;;;;;;;;;;;;;;;;;4444858;32;20212;-75
2023/01/20 04:40:02;;;;;;;105.28;43.75;;;;;;;;;;4438101;32;19944;-76
2023/01/20 04:42:27;;;;;;;;;;;;;;;;;;4439140;32;20473;-76
2023/01/20 04:44:53;;;;;;;107.35;46.03;;;;;;;;;;4426945;32;19936;-76
2023/01/20 04:47:18;;;;;;;;;;;;;;;;;;4439664;32;20522;-76
2023/01/20 04:49:43;;;;;;;113.50;46.97;;;;;;;;;;4443321;32;20069;-73
2023/01/20 04:52:08;;;;;;;;;;;;;;;;;;4444663;32;20065;-76
2023/01/20 04:54:33;;;;;;;108.07;46.45;;;;;;;;;;4442830;32;20355;-76
2023/01/20 04:56:58;;;;;;;;;;;;;;;;;;4440593;32;20157;-76
2023/01/20 04:59:24;;;;;;;128.25;50.03;;;;;;;;;;4452425;32;19932;-74
2023/01/20 05:01:49;;;;;;;135.95;50.70;;;;;;;;;;4447686;32;20125;-75
2023/01/20 05:04:14;;;;;;;123.20;50.92;;;;;;;;;;4438523;32;20414;-75
2023/01/20 05:06:41;;;;;;;124.65;50.97;;;;;;;;;;4440074;32;20108;-75
2023/01/20 05:09:09;;;;;;;119.35;48.17;;;;;;;;;;4424204;32;20034;-76
2023/01/20 05:11:34;;;;;;;119.90;51.35;;;;;;;;;;4424349;32;20025;-76
2023/01/20 05:13:59;;;;;;;;;;;;;;;;;;4438620;32;20112;-75
2023/01/20 05:16:30;;;;;;;123.32;50.50;;;;;;;;;;4438783;32;20378;-76
2023/01/20 05:18:55;;;;;;;116.18;50.35;;;;;;;;;;4449594;32;20196;-75
2023/01/20 05:21:20;;;;;;;;;;;;;;;;;;4439231;32;20128;-76
2023/01/20 05:23:46;;;;;;;118.47;49.63;;;;;;;;;;4453905;32;19947;-76
2023/01/20 05:26:11;;;;;;;;;;;;;;;;;;4451892;32;20592;-76
2023/01/20 05:28:36;;;;;;;117.18;48.33;;;;;;;;;;4440038;32;19988;-75
2023/01/20 05:31:01;;;;;;;121.32;49.88;;;;;;;;;;4452305;32;20464;-76
2023/01/20 05:33:26;;;;;;;128.02;49.13;;;;;;;;;;4446239;32;20092;-75
2023/01/20 05:35:52;;;;;;;134.10;51.33;;;;;;;;;;4455173;32;20021;-75
2023/01/20 05:38:17;;;;;;;135.90;50.47;;;;;;;;;;4453502;32;20030;-74
2023/01/20 05:40:42;;;;;;;144.65;53.90;;;;;;;;;;4453541;32;20066;-75
2023/01/20 05:43:07;;;;;;;117.95;50.15;;;;;;;;;;4425572;32;20025;-75
2023/01/20 05:45:32;;;;;;;118.82;48.20;;;;;;;;;;4438384;32;20066;-75
2023/01/20 05:47:58;;;;;;;128.32;51.67;;;;;;;;;;4441915;32;20047;-75
2023/01/20 05:50:23;;;;;;;;;;;;;;;;;;4453563;32;20103;-74
2023/01/20 05:52:48;;;;;;;128.08;47.72;;;;;;;;;;4442679;32;20413;-74
2023/01/20 05:55:14;;;;;;;;;;;;;;;;;;4438516;32;20021;-74
2023/01/20 05:57:39;;;;;;;116.53;47.05;;;;;;;;;;4449780;32;19940;-74
2023/01/20 06:00:04;;;;;;;;;;;;;;;;;;4452097;32;20155;-74
2023/01/20 06:02:29;;;;;;;120.30;47.25;;;;;;;;;;4444360;32;19964;-75
2023/01/20 06:04:55;;;;;;;;;;;;;;;;;;4423121;32;20136;-75
2023/01/20 06:07:20;;;;;;;116.53;46.80;;;;;;;;;;4423197;32;19937;-74
2023/01/20 06:09:45;;;;;;;;;;;;;;;;;;4437342;32;20396;-75
2023/01/20 06:12:10;;;;;;;111.57;46.22;;;;;;;;;;4443183;32;20586;-75
2023/01/20 06:14:35;;;;;;;;;;;;;;;;;;4454968;32;20125;-75
2023/01/20 06:17:01;;;;;;;111.03;44.47;;;;;;;;;;4451377;32;19933;-75
2023/01/20 06:19:26;;;;;;;;;;;;;;;;;;4437733;32;20136;-75
2023/01/20 06:21:52;;;;;;;111.97;47.15;;;;;;;;;;4438064;32;19932;-74
2023/01/20 06:24:17;;;;;;;130.63;51.37;;;;;;;;;;4436798;32;20125;-76
2023/01/20 06:26:42;;;;;;;;;;;;;;;;;;4437270;32;20024;-75
2023/01/20 06:29:07;;;;;;;121.28;47.33;;;;;;;;;;4437234;32;19937;-75
2023/01/20 06:31:33;;;;;;;131.80;51.37;;;;;;;;;;4438284;32;20368;-75
2023/01/20 06:33:58;;;;;;;115.43;47.72;;;;;;;;;;4446243;32;20051;-76
2023/01/20 06:36:23;;;;;;;126.95;52.40;;;;;;;;;;4452345;32;20033;-75
2023/01/20 06:38:49;;;;;;;;;;;;;;;;;;4436754;32;20056;-75
2023/01/20 06:41:15;;;;;;;120.00;48.92;;;;;;;;;;4442841;32;20382;-76
2023/01/20 06:43:41;;;;;;;;;;;;;;;;;;4424692;32;20048;-75
2023/01/20 06:46:08;;;;;;;129.98;51.10;;;;;;;;;;4422966;32;19951;-74
2023/01/20 06:48:33;;;;;;;118.35;47.88;;;;;;;;;;4439073;32;20431;-75
2023/01/20 06:50:58;;;;;;;;;;;;;;;;;;4436432;32;20114;-75
2023/01/20 06:53:24;;;;;;;97.35;44.42;;;;;;;;;;4422191;32;19948;-75
2023/01/20 06:55:49;;;;;;;;;;;;;;;;;;4437324;32;20258;-74
2023/01/20 06:58:14;;;;;;;119.24;45.92;;;;;;;;;;4437310;32;19936;-75
2023/01/20 07:00:39;;;;;;;;;;;;;;;;;;4421563;32;20029;-72
2023/01/20 07:03:05;;;;;;;115.70;48.20;;;;;;;;;;4437450;32;19945;-73
2023/01/20 07:05:30;;;;;;;128.55;50.12;;;;;;;;;;4435882;32;20470;-73
2023/01/20 07:07:55;;;;;;;115.47;47.53;;;;;;;;;;4445813;32;20025;-73
2023/01/20 07:10:21;;;;;;;136.18;53.35;;;;;;;;;;4451143;32;20354;-73
2023/01/20 07:12:46;;;;;;;;;;;;;;;;;;4451155;32;20047;-73
2023/01/20 07:15:11;;;;;;;96.10;42.17;;;;;;;;;;4452334;32;19941;-74
2023/01/20 07:17:36;;;;;;;;;;;;;;;;;;4452453;32;20128;-73
2023/01/20 07:20:01;;;;;;;105.45;44.70;;;;;;;;;;4452674;32;19992;-73
2023/01/20 07:22:26;;;;;;;;;;;;;;;;;;4448461;32;20173;-74
2023/01/20 07:24:51;;;;;;;86.60;41.75;;;;;;;;;;4436369;32;19941;-74
2023/01/20 07:27:17;;;;;;;;;;;;;;;;;;4435739;32;20125;-74
2023/01/20 07:29:42;;;;;;;98.00;43.80;;;;;;;;;;4436543;32;19959;-72
2023/01/20 07:32:07;;;;;;;;;;;;;;;;;;4435243;32;20143;-75
2023/01/20 07:34:32;;;;;;;83.55;42.70;;;;;;;;;;4421628;32;19962;-74
2023/01/20 07:37:00;;;;;;;;;;;;;;;;;;4437773;32;20194;-73
2023/01/20 07:39:25;;;;;;;89.90;45.15;;;;;;;;;;4435444;32;19977;-74
2023/01/20 07:41:50;;;;;;;;;;;;;;;;;;4421253;32;20025;-75
2023/01/20 07:44:15;;;;;;;84.53;44.67;;;;;;;;;;4435602;32;19964;-74
2023/01/20 07:46:41;;;;;;;;;;;;;;;;;;4424856;32;20173;-74
2023/01/20 07:49:06;;;;;;;93.62;48.35;;;;;;;;;;4424879;32;19936;-74
2023/01/20 07:51:31;;;;;;;80.32;44.22;;;;;;;;;;4435554;32;20061;-72
2023/01/20 07:53:56;;;;;;;88.72;46.97;;;;;;;;;;4436477;32;20044;-74
2023/01/20 07:56:26;;;;;;;75.28;43.47;;;;;;;;;;4437642;32;20025;-74
2023/01/20 07:58:52;;;;;;;109.95;54.03;;;;;;;;;;4435816;32;20319;-73
2023/01/20 08:01:17;;;;;;;;;;;;;;;;;;4436192;32;20138;-73
2023/01/20 08:03:43;;;;;;;85.27;44.70;;;;;;;;;;4449436;32;20246;-73
2023/01/20 08:06:08;;;;;;;;;;;;;;;;;;4452106;32;20048;-74
2023/01/20 08:08:34;;;;;;;99.80;48.30;;;;;;;;;;4437431;32;19937;-74
2023/01/20 08:11:00;;;;;;;;;;;;;;;;;;4453638;32;20140;-73
2023/01/20 08:13:25;;;;;;;81.10;46.90;;;;;;;;;;4455435;32;19970;-75
2023/01/20 08:15:50;;;;;;;102.20;53.78;;;;;;;;;;4454627;32;20026;-73
2023/01/20 08:18:15;;;;;;;;;;;;;;;;;;4455914;32;20425;-73
2023/01/20 08:20:41;;;;;;;91.55;49.75;;;;;;;;;;4454260;32;19951;-75
2023/01/20 08:23:06;;;;;;;89.93;47.13;;;;;;;;;;4454013;32;20026;-76
2023/01/20 08:25:31;;;;;;;96.65;51.17;;;;;;;;;;4454462;32;20052;-76
2023/01/20 08:27:56;;;;;;;;;;;;;;;;;;4441170;32;20358;-76
2023/01/20 08:30:22;;;;;;;113.03;55.80;;;;;;;;;;4454010;32;20348;-75
2023/01/20 08:32:47;;;;;;;;;;;;;;;;;;4454728;32;20195;-75
2023/01/20 08:35:12;;;;;;;94.93;50.85;;;;;;;;;;4439894;32;19955;-74
2023/01/20 08:37:37;;;;;;;;;;;;;;;;;;4455676;32;20143;-74
2023/01/20 08:40:07;;;;;;;112.47;53.30;;;;;;;;;;4454545;32;20362;-74
2023/01/20 08:42:33;;;;;;;100.40;51.60;;;;;;;;;;4454075;32;20436;-74
2023/01/20 08:44:58;;;;;;;;;;;;;;;;;;4439949;32;20026;-74
2023/01/20 08:47:24;;;;;;;103.10;53.55;;;;;;;;;;4440549;32;19960;-74
2023/01/20 08:49:49;;;;;;;;;;;;;;;;;;4454067;32;20588;-72
2023/01/20 08:52:14;;;;;;;106.87;48.60;;;;;;;;;;4455671;32;20294;-72
2023/01/20 08:54:39;;;;;;;;;;;;;;;;;;4441441;32;20234;-71
2023/01/20 08:57:04;;;;;;;98.62;49.60;;;;;;;;;;4454364;32;19955;-71
2023/01/20 08:59:29;;;;;;;;;;;;;;;;;;4454490;32;20140;-72
2023/01/20 09:01:55;;;;;;;91.85;45.33;;;;;;;;;;4439544;32;20028;-72
2023/01/20 09:04:20;;;;;;;;;;;;;;;;;;4454695;32;20116;-74
2023/01/20 09:06:47;;;;;;;113.72;52.38;;;;;;;;;;4454329;32;19943;-75
2023/01/20 09:09:13;;;;;;;91.55;46.55;;;;;;;;;;4439790;32;20025;-74
2023/01/20 09:11:38;;;;;;;95.80;48.58;;;;;;;;;;4453811;32;20052;-73
2023/01/20 09:14:04;;;;;;;;;;;;;;;;;;4454422;32;20097;-74
2023/01/20 09:16:30;;;;;;;88.50;44.18;;;;;;;;;;4440107;32;20361;-73
2023/01/20 09:18:55;;;;;;;113.53;51.00;;;;;;;;;;4458115;32;20034;-73
2023/01/20 09:21:21;;;;;;;;;;;;;;;;;;4453758;32;20025;-72
2023/01/20 09:23:47;;;;;;;86.18;42.40;;;;;;;;;;4452897;32;19966;-71
2023/01/20 09:26:12;;;;;;;79.15;40.70;;;;;;;;;;4453537;32;20195;-72
2023/01/20 09:28:37;;;;;;;;;;;;;;;;;;4439488;32;20056;-72
2023/01/20 09:31:04;;;;;;;84.43;41.78;;;;;;;;;;4453444;32;19937;-71
2023/01/20 09:33:32;;;;;;;87.72;44.78;;;;;;;;;;4452762;32;20055;-72
2023/01/20 09:35:57;;;;;;;104.65;47.05;;;;;;;;;;4452835;32;20029;-72
2023/01/20 09:44:12;;;;;;;88.55;43.95;;;;;;;;;;4453147;32;20087;-72
2023/01/20 09:55:31;;;;;;;82.95;41.25;;;;;;;;;;4453967;32;20043;-71
2023/01/20 09:58:15;;;;;;;81.50;42.33;;;;;;;;;;4453483;32;20029;-72
2023/01/20 10:00:42;;;;;;;105.78;48.63;;;;;;;;;;4439038;32;20072;-71
2023/01/20 10:03:13;;;;;;;93.90;47.13;;;;;;;;;;4438122;32;20055;-71
2023/01/20 10:05:39;;;;;;;95.20;46.85;;;;;;;;;;4438031;32;20080;-72
2023/01/20 10:08:04;;;;;;;;;;;;;;;;;;4453688;32;20395;-71
2023/01/20 10:10:29;;;;;;;80.45;40.38;;;;;;;;;;4433180;32;19985;-71
2023/01/20 10:12:54;;;;;;;;;;;;;;;;;;4423076;32;20517;-71
2023/01/20 10:15:27;;;;;;;92.28;45.35;;;;;;;;;;4437262;32;19976;-72
2023/01/20 10:17:59;;;;;;;89.13;43.63;;;;;;;;;;4438982;32;20154;-72
2023/01/20 10:20:34;;;;;;;97.88;44.78;;;;;;;;;;4438697;32;20033;-72
2023/01/20 10:23:22;;;;;;;89.60;45.42;;;;;;;;;;4437439;32;20053;-72
2023/01/20 10:26:06;;;;;;;83.00;43.47;;;;;;;;;;4437686;32;20079;-71
2023/01/20 10:28:35;;;;;;;84.87;41.30;;;;;;;;;;4422969;32;20041;-72
2023/01/20 10:31:02;;;;;;;85.45;45.47;;;;;;;;;;4422912;32;20105;-71
2023/01/20 10:33:30;;;;;;;93.10;45.35;;;;;;;;;;4449482;32;20032;-71
2023/01/20 10:35:57;;;;;;;77.47;41.70;;;;;;;;;;4452667;32;20084;-72
2023/01/20 10:38:37;;;;;;;87.35;45.50;;;;;;;;;;4453300;32;20041;-72
2023/01/20 10:41:08;;;;;;;94.55;46.15;;;;;;;;;;4438470;32;20029;-71
2023/01/20 10:43:33;;;;;;;91.22;46.17;;;;;;;;;;4453655;32;20022;-72
2023/01/20 10:45:58;;;;;;;;;;;;;;;;;;4452019;32;20076;-71
2023/01/20 10:48:26;;;;;;;97.14;46.62;;;;;;;;;;4454644;32;19936;-72
2023/01/20 10:50:56;;;;;;;99.50;47.53;;;;;;;;;;4457635;32;20041;-72
2023/01/20 10:53:32;;;;;;;94.65;45.35;;;;;;;;;;4452906;32;20071;-72
2023/01/20 10:56:05;;;;;;;102.90;50.28;;;;;;;;;;4437854;32;20041;-72
2023/01/20 10:58:32;;;;;;;94.53;46.92;;;;;;;;;;4452854;32;20132;-72
2023/01/20 11:01:00;;;;;;;84.90;42.83;;;;;;;;;;4438395;32;20142;-72
2023/01/20 11:03:27;;;;;;;90.70;45.12;;;;;;;;;;4438091;32;20021;-72
2023/01/20 11:05:52;;;;;;;85.20;43.53;;;;;;;;;;4451910;32;20056;-74
2023/01/20 11:08:17;;;;;;;;;;;;;;;;;;4454182;32;20025;-73
2023/01/20 11:10:42;;;;;;;85.87;45.80;;;;;;;;;;4451831;32;19975;-74
2023/01/20 11:13:08;;;;;;;;;;;;;;;;;;4437462;32;20052;-73
2023/01/20 11:15:35;;;;;;;84.40;42.32;;;;;;;;;;4437268;32;19999;-74
2023/01/20 11:18:13;;;;;;;89.43;44.53;;;;;;;;;;4452017;32;20056;-75
2023/01/20 11:20:44;;;;;;;79.95;41.85;;;;;;;;;;4452339;32;20379;-73
2023/01/20 11:23:20;;;;;;;81.80;42.92;;;;;;;;;;4451728;32;20058;-75
2023/01/20 11:25:54;;;;;;;81.80;44.42;;;;;;;;;;4436889;32;20418;-74
2023/01/20 11:28:19;;;;;;;81.10;43.97;;;;;;;;;;4436865;32;20118;-74
2023/01/20 11:30:44;;;;;;;;;;;;;;;;;;4452890;32;20028;-74
2023/01/20 11:33:20;;;;;;;78.62;41.67;;;;;;;;;;4452327;32;20023;-75
2023/01/20 11:35:59;;;;;;;84.05;43.80;;;;;;;;;;4437711;32;20124;-74
2023/01/20 11:38:26;;;;;;;82.68;41.70;;;;;;;;;;4437262;32;20383;-74
2023/01/20 11:40:53;;;;;;;77.20;42.50;;;;;;;;;;4436956;32;20025;-74
2023/01/20 11:43:47;;;;;;;72.75;41.17;;;;;;;;;;4439085;32;20422;-75
2023/01/20 11:46:21;;;;;;;85.20;44.10;;;;;;;;;;4435690;32;20358;-75
2023/01/20 11:48:47;;;;;;;87.10;44.08;;;;;;;;;;4437029;32;20017;-74
2023/01/20 11:51:12;;;;;;;;;;;;;;;;;;4451047;32;20056;-74
2023/01/20 11:53:37;;;;;;;76.87;41.30;;;;;;;;;;4451379;32;19951;-73
2023/01/20 11:56:23;;;;;;;84.57;42.38;;;;;;;;;;4436538;32;20084;-74
2023/01/20 11:58:51;;;;;;;89.40;43.35;;;;;;;;;;4437046;32;20021;-74
2023/01/20 12:01:21;;;;;;;74.90;41.75;;;;;;;;;;4452345;32;20049;-74
2023/01/20 12:03:55;;;;;;;74.82;39.70;;;;;;;;;;4452507;32;20109;-74
2023/01/20 12:06:27;;;;;;;74.82;40.47;;;;;;;;;;4452435;32;20091;-74
2023/01/20 12:09:05;;;;;;;86.53;43.13;;;;;;;;;;4452348;32;20029;-74
2023/01/20 12:11:35;;;;;;;81.78;41.53;;;;;;;;;;4438020;32;20122;-74
2023/01/20 12:14:19;;;;;;;73.28;39.08;;;;;;;;;;4438708;32;20441;-75
2023/01/20 12:17:07;;;;;;;67.25;37.00;;;;;;;;;;4451172;32;20056;-74
2023/01/20 12:19:39;;;;;;;68.55;37.53;;;;;;;;;;4418806;32;20055;-74
2023/01/20 12:22:16;;;;;;;74.80;37.50;;;;;;;;;;4457724;32;20026;-75
2023/01/20 12:25:07;;;;;;;71.85;37.95;;;;;;;;;;4433884;32;20041;-73
2023/01/20 12:27:33;;;;;;;72.93;38.63;;;;;;;;;;4437157;32;20041;-73
2023/01/20 12:29:58;;;;;;;;;;;;;;;;;;4421611;32;20085;-74
2023/01/20 12:32:23;;;;;;;78.20;38.88;;;;;;;;;;4435700;32;19967;-73
2023/01/20 12:34:48;;;;;;;;;;;;;;;;;;4446928;32;20586;-72
2023/01/20 12:37:15;;;;;;;65.68;34.82;;;;;;;;;;4451038;32;20339;-74
2023/01/20 12:40:03;;;;;;;73.47;36.92;;;;;;;;;;4426992;32;20435;-74
2023/01/20 12:42:35;;;;;;;72.30;38.30;;;;;;;;;;4435631;32;20483;-72
2023/01/20 12:45:16;;;;;;;70.28;37.45;;;;;;;;;;4435761;32;20065;-74
2023/01/20 12:47:41;;;;;;;71.57;36.47;;;;;;;;;;4423380;32;20064;-73
2023/01/20 12:50:07;;;;;;;;;;;;;;;;;;4436242;32;20355;-74
2023/01/20 12:52:51;;;;;;;66.60;34.95;;;;;;;;;;4435078;32;19971;-73
2023/01/20 12:55:16;;;;;;;82.75;39.45;;;;;;;;;;4426240;32;20025;-73
2023/01/20 12:57:42;;;;;;;;;;;;;;;;;;4438641;32;20052;-73
2023/01/20 13:00:08;;;;;;;72.80;35.03;;;;;;;;;;4440061;32;19951;-72
2023/01/20 13:02:36;;;;;;;57.78;34.50;;;;;;;;;;4448518;32;20029;-72
2023/01/20 13:05:20;;;;;;;64.57;32.17;;;;;;;;;;4437743;32;20033;-74
2023/01/20 13:07:49;;;;;;;57.67;29.33;;;;;;;;;;4424282;32;20033;-72
2023/01/20 13:10:28;;;;;;;61.15;32.88;;;;;;;;;;4442682;32;20051;-73
2023/01/20 13:13:04;;;;;;;65.82;32.38;;;;;;;;;;4454436;32;20033;-73
2023/01/20 13:15:29;;;;;;;;;;;;;;;;;;4440283;32;20124;-72
2023/01/20 13:18:01;;;;;;;50.85;28.38;;;;;;;;;;4438449;32;19947;-72
2023/01/20 13:20:27;;;;;;;36.85;25.75;;;;;;;;;;4437879;32;20125;-73
2023/01/20 13:22:52;;;;;;;;;;;;;;;;;;4438349;32;20021;-74
2023/01/20 13:25:18;;;;;;;33.88;21.48;;;;;;;;;;4441585;32;19928;-74
2023/01/20 13:27:44;;;;;;;23.25;16.80;;;;;;;;;;4447579;32;20125;-74
2023/01/20 13:30:09;;;;;;;;;;;;;;;;;;4439073;32;20106;-74
2023/01/20 13:32:44;;;;;;;17.95;12.43;;;;;;;;;;4452986;32;19937;-73
2023/01/20 13:35:22;;;;;;;12.57;10.27;;;;;;;;;;4453414;32;20021;-74
2023/01/20 13:37:55;;;;;;;16.15;12.23;;;;;;;;;;4454344;32;20074;-74
2023/01/20 13:40:35;;;;;;;19.08;13.77;;;;;;;;;;4453448;32;20057;-74
2023/01/20 13:43:04;;;;;;;17.70;11.73;;;;;;;;;;4454751;32;20057;-73
2023/01/20 13:45:29;;;;;;;18.45;11.52;;;;;;;;;;4454433;32;20052;-74
2023/01/20 13:47:57;;;;;;;;;;;;;;;;;;4458358;32;20029;-74
2023/01/20 13:50:25;;;;;;;24.12;16.58;;;;;;;;;;4452516;32;19944;-73
2023/01/20 13:52:51;;;;;;;19.60;13.40;;;;;;;;;;4425957;32;20065;-74
2023/01/20 13:55:16;;;;;;;;;;;;;;;;;;4437480;32;20079;-73
2023/01/20 13:57:41;;;;;;;17.40;12.30;;;;;;;;;;4424357;32;20023;-74
2023/01/20 14:00:06;;;;;;;;;;;;;;;;;;4426196;32;20146;-74
2023/01/20 14:02:33;;;;;;;23.85;15.50;;;;;;;;;;4448431;32;19950;-74
2023/01/20 14:04:59;;;;;;;24.65;15.02;;;;;;;;;;4455224;32;20144;-73
2023/01/20 14:07:24;;;;;;;;;;;;;;;;;;4454944;32;20075;-74
2023/01/20 14:09:50;;;;;;;33.65;22.10;;;;;;;;;;4426902;32;19991;-74
2023/01/20 14:12:15;;;;;;;27.00;18.30;;;;;;;;;;4439462;32;20052;-75
2023/01/20 14:14:40;;;;;;;;;;;;;;;;;;4440717;32;20022;-74
2023/01/20 14:17:11;;;;;;;29.42;18.92;;;;;;;;;;4422329;32;20000;-74
2023/01/20 14:19:36;;;;;;;32.10;19.95;;;;;;;;;;4441907;32;20116;-74
2023/01/20 14:22:01;;;;;;;;;;;;;;;;;;4440463;32;20021;-75
2023/01/20 14:24:29;;;;;;;26.23;16.65;;;;;;;;;;4453653;32;19956;-75
2023/01/20 14:27:28;;;;;;;29.58;18.58;;;;;;;;;;4452771;32;20059;-74
2023/01/20 14:29:54;;;;;;;29.65;18.77;;;;;;;;;;4440092;32;20383;-75
2023/01/20 14:32:27;;;;;;;26.23;16.90;;;;;;;;;;4438169;32;20376;-75
2023/01/20 14:34:52;;;;;;;36.90;18.85;;;;;;;;;;4451909;32;20047;-74
2023/01/20 14:37:17;;;;;;;;;;;;;;;;;;4452335;32;20018;-73
2023/01/20 14:39:46;;;;;;;34.35;18.05;;;;;;;;;;4452130;32;19963;-74
2023/01/20 14:42:16;;;;;;;20.10;12.80;;;;;;;;;;4452164;32;20143;-74
2023/01/20 14:44:45;;;;;;;21.77;14.82;;;;;;;;;;4452023;32;20085;-74
2023/01/20 14:47:10;;;;;;;26.02;14.70;;;;;;;;;;4451726;32;20074;-74
2023/01/20 14:49:38;;;;;;;;;;;;;;;;;;4452322;32;20049;-73
2023/01/20 14:52:04;;;;;;;25.10;14.73;;;;;;;;;;4438559;32;19980;-75
2023/01/20 14:54:29;;;;;;;;;;;;;;;;;;4438042;32;20060;-75
2023/01/20 14:56:54;;;;;;;26.12;16.15;;;;;;;;;;4453758;32;20287;-74
2023/01/20 14:59:20;;;;;;;;;;;;;;;;;;4444661;32;20053;-75
2023/01/20 15:01:49;;;;;;;30.77;18.58;;;;;;;;;;4437450;32;19960;-75
2023/01/20 15:04:14;;;;;;;36.90;21.50;;;;;;;;;;4421958;32;20461;-75
2023/01/20 15:06:40;;;;;;;;;;;;;;;;;;4437937;32;20053;-75
2023/01/20 15:09:23;;;;;;;31.02;20.10;;;;;;;;;;4422625;32;19936;-74